sensor_id;sensor_type;location;lat;lon;timestamp;P1;durP1;ratioP1;P2;durP2;ratioP2
55728;SDS011;41633;39.720;2.910;2023-02-28T00:00:06;6.28;;;2.30;;
55728;SDS011;41633;39.720;2.910;2023-02-28T00:02:35;5.18;;;1.80;;
55728;SDS011;41633;39.720;2.910;2023-02-28T00:05:01;6.40;;;2.33;;
55728;SDS011;41633;39.720;2.910;2023-02-28T00:07:28;5.93;;;2.08;;
55728;SDS011;41633;39.720;2.910;2023-02-28T00:09:55;5.78;;;2.10;;
55728;SDS011;41633;39.720;2.910;2023-02-28T00:12:21;6.70;;;2.20;;
55728;SDS011;41633;39.720;2.910;2023-02-28T00:14:48;6.38;;;2.00;;
55728;SDS011;41633;39.720;2.910;2023-02-28T00:17:14;7.90;;;2.33;;
55728;SDS011;41633;39.720;2.910;2023-02-28T00:19:41;6.07;;;1.70;;
55728;SDS011;41633;39.720;2.910;2023-02-28T00:22:07;3.92;;;1.52;;
55728;SDS011;41633;39.720;2.910;2023-02-28T00:24:33;3.67;;;1.45;;
55728;SDS011;41633;39.720;2.910;2023-02-28T00:26:59;3.03;;;1.25;;
55728;SDS011;41633;39.720;2.910;2023-02-28T00:29:26;4.78;;;1.50;;
55728;SDS011;41633;39.720;2.910;2023-02-28T00:31:52;4.90;;;1.50;;
55728;SDS011;41633;39.720;2.910;2023-02-28T00:34:18;5.32;;;1.90;;
55728;SDS011;41633;39.720;2.910;2023-02-28T00:36:44;6.72;;;1.92;;
55728;SDS011;41633;39.720;2.910;2023-02-28T00:39:14;4.32;;;1.60;;
55728;SDS011;41633;39.720;2.910;2023-02-28T00:41:40;7.47;;;1.73;;
55728;SDS011;41633;39.720;2.910;2023-02-28T00:44:06;5.88;;;2.05;;
55728;SDS011;41633;39.720;2.910;2023-02-28T00:46:32;6.30;;;2.33;;
55728;SDS011;41633;39.720;2.910;2023-02-28T00:48:58;5.72;;;1.77;;
55728;SDS011;41633;39.720;2.910;2023-02-28T00:51:24;5.55;;;1.83;;
55728;SDS011;41633;39.720;2.910;2023-02-28T00:53:50;4.80;;;1.52;;
55728;SDS011;41633;39.720;2.910;2023-02-28T00:56:17;5.00;;;1.90;;
55728;SDS011;41633;39.720;2.910;2023-02-28T00:58:43;5.78;;;2.05;;
55728;SDS011;41633;39.720;2.910;2023-02-28T01:01:09;8.95;;;4.00;;
55728;SDS011;41633;39.720;2.910;2023-02-28T01:03:35;6.75;;;2.33;;
55728;SDS011;41633;39.720;2.910;2023-02-28T01:06:01;6.25;;;2.25;;
55728;SDS011;41633;39.720;2.910;2023-02-28T01:08:27;5.43;;;1.90;;
55728;SDS011;41633;39.720;2.910;2023-02-28T01:10:54;6.00;;;2.40;;
55728;SDS011;41633;39.720;2.910;2023-02-28T01:13:20;6.05;;;2.00;;
55728;SDS011;41633;39.720;2.910;2023-02-28T01:15:52;4.75;;;1.90;;
55728;SDS011;41633;39.720;2.910;2023-02-28T01:18:19;5.20;;;1.92;;
55728;SDS011;41633;39.720;2.910;2023-02-28T01:20:45;4.32;;;1.60;;
55728;SDS011;41633;39.720;2.910;2023-02-28T01:23:11;5.25;;;1.88;;
55728;SDS011;41633;39.720;2.910;2023-02-28T01:25:38;6.45;;;2.13;;
55728;SDS011;41633;39.720;2.910;2023-02-28T01:30:30;5.10;;;1.60;;
55728;SDS011;41633;39.720;2.910;2023-02-28T01:32:57;5.45;;;1.75;;
55728;SDS011;41633;39.720;2.910;2023-02-28T01:35:23;4.80;;;1.80;;
55728;SDS011;41633;39.720;2.910;2023-02-28T01:37:49;5.72;;;1.70;;
55728;SDS011;41633;39.720;2.910;2023-02-28T01:40:15;5.75;;;1.60;;
55728;SDS011;41633;39.720;2.910;2023-02-28T01:42:41;3.72;;;1.40;;
55728;SDS011;41633;39.720;2.910;2023-02-28T01:47:38;3.80;;;1.30;;
55728;SDS011;41633;39.720;2.910;2023-02-28T01:50:07;3.60;;;1.40;;
55728;SDS011;41633;39.720;2.910;2023-02-28T01:52:35;4.53;;;1.60;;
55728;SDS011;41633;39.720;2.910;2023-02-28T01:55:02;3.90;;;1.50;;
55728;SDS011;41633;39.720;2.910;2023-02-28T01:57:34;5.57;;;1.40;;
55728;SDS011;41633;39.720;2.910;2023-02-28T02:00:16;4.65;;;1.48;;
55728;SDS011;41633;39.720;2.910;2023-02-28T02:02:43;6.15;;;1.55;;
55728;SDS011;41633;39.720;2.910;2023-02-28T02:05:12;3.08;;;1.15;;
55728;SDS011;41633;39.720;2.910;2023-02-28T02:07:40;3.75;;;1.20;;
55728;SDS011;41633;39.720;2.910;2023-02-28T02:10:17;3.55;;;1.25;;
55728;SDS011;41633;39.720;2.910;2023-02-28T02:12:54;3.15;;;1.10;;
55728;SDS011;41633;39.720;2.910;2023-02-28T02:17:56;3.78;;;1.27;;
55728;SDS011;41633;39.720;2.910;2023-02-28T02:34:24;3.90;;;1.25;;
55728;SDS011;41633;39.720;2.910;2023-02-28T02:37:09;3.75;;;1.30;;
55728;SDS011;41633;39.720;2.910;2023-02-28T02:42:11;2.38;;;1.00;;
55728;SDS011;41633;39.720;2.910;2023-02-28T02:44:41;3.78;;;1.15;;
55728;SDS011;41633;39.720;2.910;2023-02-28T02:47:13;2.25;;;0.80;;
55728;SDS011;41633;39.720;2.910;2023-02-28T02:49:42;2.38;;;0.80;;
55728;SDS011;41633;39.720;2.910;2023-02-28T02:52:10;2.45;;;0.82;;
55728;SDS011;41633;39.720;2.910;2023-02-28T02:54:39;2.15;;;0.80;;
55728;SDS011;41633;39.720;2.910;2023-02-28T02:57:08;4.70;;;1.00;;
55728;SDS011;41633;39.720;2.910;2023-02-28T02:59:36;2.28;;;0.95;;
55728;SDS011;41633;39.720;2.910;2023-02-28T03:02:06;2.88;;;1.10;;
55728;SDS011;41633;39.720;2.910;2023-02-28T03:04:34;2.50;;;0.75;;
55728;SDS011;41633;39.720;2.910;2023-02-28T03:07:02;1.80;;;0.90;;
55728;SDS011;41633;39.720;2.910;2023-02-28T03:09:28;2.13;;;0.88;;
55728;SDS011;41633;39.720;2.910;2023-02-28T03:11:55;2.22;;;0.80;;
55728;SDS011;41633;39.720;2.910;2023-02-28T03:17:18;2.00;;;0.80;;
55728;SDS011;41633;39.720;2.910;2023-02-28T03:22:45;0.80;;;0.50;;
55728;SDS011;41633;39.720;2.910;2023-02-28T03:27:52;1.73;;;0.60;;
55728;SDS011;41633;39.720;2.910;2023-02-28T03:30:22;1.20;;;0.60;;
55728;SDS011;41633;39.720;2.910;2023-02-28T03:35:27;3.75;;;1.40;;
55728;SDS011;41633;39.720;2.910;2023-02-28T03:38:00;3.47;;;0.90;;
55728;SDS011;41633;39.720;2.910;2023-02-28T03:40:30;0.95;;;0.50;;
55728;SDS011;41633;39.720;2.910;2023-02-28T03:42:59;0.98;;;0.47;;
55728;SDS011;41633;39.720;2.910;2023-02-28T03:45:31;1.40;;;0.52;;
55728;SDS011;41633;39.720;2.910;2023-02-28T03:48:07;1.00;;;0.50;;
55728;SDS011;41633;39.720;2.910;2023-02-28T03:50:36;0.63;;;0.40;;
55728;SDS011;41633;39.720;2.910;2023-02-28T03:56:17;1.13;;;0.40;;
55728;SDS011;41633;39.720;2.910;2023-02-28T04:01:12;1.38;;;0.52;;
55728;SDS011;41633;39.720;2.910;2023-02-28T04:03:39;1.55;;;0.52;;
55728;SDS011;41633;39.720;2.910;2023-02-28T04:06:08;3.65;;;0.70;;
55728;SDS011;41633;39.720;2.910;2023-02-28T04:08:38;6.13;;;1.00;;
55728;SDS011;41633;39.720;2.910;2023-02-28T04:11:06;2.88;;;0.80;;
55728;SDS011;41633;39.720;2.910;2023-02-28T04:13:34;2.97;;;0.80;;
55728;SDS011;41633;39.720;2.910;2023-02-28T04:16:00;3.00;;;0.70;;
55728;SDS011;41633;39.720;2.910;2023-02-28T04:18:26;3.45;;;0.77;;
55728;SDS011;41633;39.720;2.910;2023-02-28T04:20:52;3.60;;;0.80;;
55728;SDS011;41633;39.720;2.910;2023-02-28T04:23:19;1.95;;;0.60;;
55728;SDS011;41633;39.720;2.910;2023-02-28T04:25:45;2.13;;;0.82;;
55728;SDS011;41633;39.720;2.910;2023-02-28T04:28:11;3.85;;;0.90;;
55728;SDS011;41633;39.720;2.910;2023-02-28T04:30:37;4.95;;;1.05;;
55728;SDS011;41633;39.720;2.910;2023-02-28T04:35:30;7.40;;;1.55;;
55728;SDS011;41633;39.720;2.910;2023-02-28T04:37:56;3.78;;;0.93;;
55728;SDS011;41633;39.720;2.910;2023-02-28T04:40:22;5.22;;;1.02;;
55728;SDS011;41633;39.720;2.910;2023-02-28T04:42:48;6.30;;;1.10;;
55728;SDS011;41633;39.720;2.910;2023-02-28T04:45:14;5.32;;;1.10;;
55728;SDS011;41633;39.720;2.910;2023-02-28T04:47:42;5.78;;;1.20;;
55728;SDS011;41633;39.720;2.910;2023-02-28T04:50:08;5.72;;;1.27;;
55728;SDS011;41633;39.720;2.910;2023-02-28T04:52:34;8.57;;;1.35;;
55728;SDS011;41633;39.720;2.910;2023-02-28T04:55:00;8.23;;;1.88;;
55728;SDS011;41633;39.720;2.910;2023-02-28T04:57:27;9.73;;;1.60;;
55728;SDS011;41633;39.720;2.910;2023-02-28T04:59:53;10.70;;;1.80;;
55728;SDS011;41633;39.720;2.910;2023-02-28T05:02:19;7.72;;;1.63;;
55728;SDS011;41633;39.720;2.910;2023-02-28T05:04:46;6.95;;;1.27;;
55728;SDS011;41633;39.720;2.910;2023-02-28T05:07:12;8.32;;;1.70;;
55728;SDS011;41633;39.720;2.910;2023-02-28T05:09:38;11.27;;;2.00;;
55728;SDS011;41633;39.720;2.910;2023-02-28T05:12:04;10.75;;;1.80;;
55728;SDS011;41633;39.720;2.910;2023-02-28T05:14:31;9.05;;;1.80;;
55728;SDS011;41633;39.720;2.910;2023-02-28T05:16:57;10.18;;;1.80;;
55728;SDS011;41633;39.720;2.910;2023-02-28T05:19:23;10.77;;;1.92;;
55728;SDS011;41633;39.720;2.910;2023-02-28T05:21:50;11.75;;;1.80;;
55728;SDS011;41633;39.720;2.910;2023-02-28T05:24:17;11.27;;;2.13;;
55728;SDS011;41633;39.720;2.910;2023-02-28T05:26:50;12.77;;;2.20;;
55728;SDS011;41633;39.720;2.910;2023-02-28T05:29:17;14.00;;;2.22;;
55728;SDS011;41633;39.720;2.910;2023-02-28T05:31:44;15.45;;;3.38;;
55728;SDS011;41633;39.720;2.910;2023-02-28T05:34:10;14.88;;;2.40;;
55728;SDS011;41633;39.720;2.910;2023-02-28T05:36:37;12.63;;;2.28;;
55728;SDS011;41633;39.720;2.910;2023-02-28T05:41:30;16.38;;;2.75;;
55728;SDS011;41633;39.720;2.910;2023-02-28T05:43:57;14.73;;;2.35;;
55728;SDS011;41633;39.720;2.910;2023-02-28T05:46:24;12.05;;;2.35;;
55728;SDS011;41633;39.720;2.910;2023-02-28T05:48:50;9.50;;;2.10;;
55728;SDS011;41633;39.720;2.910;2023-02-28T05:51:17;13.10;;;2.30;;
55728;SDS011;41633;39.720;2.910;2023-02-28T05:53:43;13.55;;;2.35;;
55728;SDS011;41633;39.720;2.910;2023-02-28T05:56:09;17.15;;;3.22;;
55728;SDS011;41633;39.720;2.910;2023-02-28T05:58:35;16.42;;;3.25;;
55728;SDS011;41633;39.720;2.910;2023-02-28T06:01:18;19.70;;;3.20;;
55728;SDS011;41633;39.720;2.910;2023-02-28T06:03:44;20.17;;;3.15;;
55728;SDS011;41633;39.720;2.910;2023-02-28T06:06:11;19.67;;;3.00;;
55728;SDS011;41633;39.720;2.910;2023-02-28T06:08:37;17.90;;;2.80;;
55728;SDS011;41633;39.720;2.910;2023-02-28T06:11:03;17.58;;;3.05;;
55728;SDS011;41633;39.720;2.910;2023-02-28T06:13:29;17.60;;;3.50;;
55728;SDS011;41633;39.720;2.910;2023-02-28T06:15:55;14.52;;;3.15;;
55728;SDS011;41633;39.720;2.910;2023-02-28T06:18:22;11.80;;;2.35;;
55728;SDS011;41633;39.720;2.910;2023-02-28T06:20:54;10.35;;;2.20;;
55728;SDS011;41633;39.720;2.910;2023-02-28T06:23:21;13.68;;;2.03;;
55728;SDS011;41633;39.720;2.910;2023-02-28T06:28:14;11.00;;;2.33;;
55728;SDS011;41633;39.720;2.910;2023-02-28T06:30:40;15.57;;;2.67;;
55728;SDS011;41633;39.720;2.910;2023-02-28T06:33:07;16.90;;;3.33;;
55728;SDS011;41633;39.720;2.910;2023-02-28T06:35:33;17.77;;;3.20;;
55728;SDS011;41633;39.720;2.910;2023-02-28T06:37:59;16.65;;;3.47;;
55728;SDS011;41633;39.720;2.910;2023-02-28T06:40:25;11.48;;;2.50;;
55728;SDS011;41633;39.720;2.910;2023-02-28T06:42:51;17.70;;;3.53;;
55728;SDS011;41633;39.720;2.910;2023-02-28T06:45:17;18.75;;;3.78;;
55728;SDS011;41633;39.720;2.910;2023-02-28T06:47:44;22.20;;;3.53;;
55728;SDS011;41633;39.720;2.910;2023-02-28T06:50:11;20.30;;;4.22;;
55728;SDS011;41633;39.720;2.910;2023-02-28T06:52:38;19.70;;;4.18;;
55728;SDS011;41633;39.720;2.910;2023-02-28T06:57:30;23.17;;;4.30;;
55728;SDS011;41633;39.720;2.910;2023-02-28T07:02:23;21.73;;;3.63;;
55728;SDS011;41633;39.720;2.910;2023-02-28T07:04:49;15.15;;;3.17;;
55728;SDS011;41633;39.720;2.910;2023-02-28T07:07:15;19.10;;;3.45;;
55728;SDS011;41633;39.720;2.910;2023-02-28T07:09:41;16.17;;;3.10;;
55728;SDS011;41633;39.720;2.910;2023-02-28T07:12:08;28.38;;;4.53;;
55728;SDS011;41633;39.720;2.910;2023-02-28T07:14:36;20.60;;;4.32;;
55728;SDS011;41633;39.720;2.910;2023-02-28T07:17:02;20.63;;;3.10;;
55728;SDS011;41633;39.720;2.910;2023-02-28T07:19:28;17.75;;;3.13;;
55728;SDS011;41633;39.720;2.910;2023-02-28T07:22:04;17.70;;;3.10;;
55728;SDS011;41633;39.720;2.910;2023-02-28T07:24:30;16.25;;;2.90;;
55728;SDS011;41633;39.720;2.910;2023-02-28T07:26:56;13.63;;;2.67;;
55728;SDS011;41633;39.720;2.910;2023-02-28T07:29:23;13.38;;;2.60;;
55728;SDS011;41633;39.720;2.910;2023-02-28T07:31:49;14.52;;;2.78;;
55728;SDS011;41633;39.720;2.910;2023-02-28T07:34:18;12.77;;;2.50;;
55728;SDS011;41633;39.720;2.910;2023-02-28T07:36:44;13.52;;;2.58;;
55728;SDS011;41633;39.720;2.910;2023-02-28T07:39:10;15.70;;;2.58;;
55728;SDS011;41633;39.720;2.910;2023-02-28T07:41:36;12.60;;;2.70;;
55728;SDS011;41633;39.720;2.910;2023-02-28T07:44:08;18.38;;;3.95;;
55728;SDS011;41633;39.720;2.910;2023-02-28T07:46:35;24.40;;;4.47;;
55728;SDS011;41633;39.720;2.910;2023-02-28T07:49:01;19.60;;;4.13;;
55728;SDS011;41633;39.720;2.910;2023-02-28T07:51:30;15.30;;;3.67;;
55728;SDS011;41633;39.720;2.910;2023-02-28T07:53:56;23.45;;;4.32;;
55728;SDS011;41633;39.720;2.910;2023-02-28T07:56:23;16.92;;;3.85;;
55728;SDS011;41633;39.720;2.910;2023-02-28T08:01:15;21.80;;;4.90;;
55728;SDS011;41633;39.720;2.910;2023-02-28T08:06:11;22.75;;;4.88;;
55728;SDS011;41633;39.720;2.910;2023-02-28T08:08:40;23.63;;;4.35;;
55728;SDS011;41633;39.720;2.910;2023-02-28T08:11:07;23.58;;;4.20;;
55728;SDS011;41633;39.720;2.910;2023-02-28T08:13:33;23.30;;;4.90;;
55728;SDS011;41633;39.720;2.910;2023-02-28T08:16:00;26.30;;;4.65;;
55728;SDS011;41633;39.720;2.910;2023-02-28T08:18:27;27.52;;;4.93;;
55728;SDS011;41633;39.720;2.910;2023-02-28T08:20:53;23.30;;;4.25;;
55728;SDS011;41633;39.720;2.910;2023-02-28T08:23:19;19.45;;;3.28;;
55728;SDS011;41633;39.720;2.910;2023-02-28T08:25:52;23.73;;;4.93;;
55728;SDS011;41633;39.720;2.910;2023-02-28T08:28:18;18.42;;;4.35;;
55728;SDS011;41633;39.720;2.910;2023-02-28T08:30:44;27.40;;;4.75;;
55728;SDS011;41633;39.720;2.910;2023-02-28T08:33:11;25.60;;;4.20;;
55728;SDS011;41633;39.720;2.910;2023-02-28T08:35:37;19.65;;;3.75;;
55728;SDS011;41633;39.720;2.910;2023-02-28T08:38:03;26.33;;;4.40;;
55728;SDS011;41633;39.720;2.910;2023-02-28T08:40:29;29.40;;;5.43;;
55728;SDS011;41633;39.720;2.910;2023-02-28T08:42:55;22.73;;;4.00;;
55728;SDS011;41633;39.720;2.910;2023-02-28T08:45:21;21.75;;;4.45;;
55728;SDS011;41633;39.720;2.910;2023-02-28T08:50:14;17.50;;;3.60;;
55728;SDS011;41633;39.720;2.910;2023-02-28T08:52:44;19.42;;;4.25;;
55728;SDS011;41633;39.720;2.910;2023-02-28T08:55:10;18.77;;;3.70;;
55728;SDS011;41633;39.720;2.910;2023-02-28T08:57:36;19.92;;;3.20;;
55728;SDS011;41633;39.720;2.910;2023-02-28T09:00:03;12.85;;;2.88;;
55728;SDS011;41633;39.720;2.910;2023-02-28T09:02:32;17.75;;;3.28;;
55728;SDS011;41633;39.720;2.910;2023-02-28T09:04:58;20.15;;;4.03;;
55728;SDS011;41633;39.720;2.910;2023-02-28T09:07:24;11.85;;;3.03;;
55728;SDS011;41633;39.720;2.910;2023-02-28T09:09:51;14.25;;;3.00;;
55728;SDS011;41633;39.720;2.910;2023-02-28T09:12:26;14.45;;;2.90;;
55728;SDS011;41633;39.720;2.910;2023-02-28T09:14:53;14.98;;;3.08;;
55728;SDS011;41633;39.720;2.910;2023-02-28T09:19:47;20.98;;;4.55;;
55728;SDS011;41633;39.720;2.910;2023-02-28T09:22:14;19.73;;;4.13;;
55728;SDS011;41633;39.720;2.910;2023-02-28T09:24:40;17.45;;;3.42;;
55728;SDS011;41633;39.720;2.910;2023-02-28T09:27:07;16.98;;;4.38;;
55728;SDS011;41633;39.720;2.910;2023-02-28T09:29:33;17.55;;;3.97;;
55728;SDS011;41633;39.720;2.910;2023-02-28T09:32:00;19.40;;;4.20;;
55728;SDS011;41633;39.720;2.910;2023-02-28T09:34:27;18.70;;;3.70;;
55728;SDS011;41633;39.720;2.910;2023-02-28T09:36:55;15.25;;;3.60;;
55728;SDS011;41633;39.720;2.910;2023-02-28T09:39:22;19.35;;;3.88;;
55728;SDS011;41633;39.720;2.910;2023-02-28T09:41:50;14.18;;;3.70;;
55728;SDS011;41633;39.720;2.910;2023-02-28T09:46:56;14.98;;;3.78;;
55728;SDS011;41633;39.720;2.910;2023-02-28T09:49:25;24.10;;;3.95;;
55728;SDS011;41633;39.720;2.910;2023-02-28T09:54:21;18.52;;;4.47;;
55728;SDS011;41633;39.720;2.910;2023-02-28T09:56:53;26.58;;;4.88;;
55728;SDS011;41633;39.720;2.910;2023-02-28T10:02:19;26.00;;;5.32;;
55728;SDS011;41633;39.720;2.910;2023-02-28T10:07:39;25.10;;;5.20;;
55728;SDS011;41633;39.720;2.910;2023-02-28T10:12:44;24.90;;;6.18;;
55728;SDS011;41633;39.720;2.910;2023-02-28T10:15:15;23.67;;;4.53;;
55728;SDS011;41633;39.720;2.910;2023-02-28T10:17:42;22.85;;;4.57;;
55728;SDS011;41633;39.720;2.910;2023-02-28T10:20:14;23.23;;;4.78;;
55728;SDS011;41633;39.720;2.910;2023-02-28T10:25:21;22.83;;;5.15;;
55728;SDS011;41633;39.720;2.910;2023-02-28T10:27:48;26.88;;;4.68;;
55728;SDS011;41633;39.720;2.910;2023-02-28T10:30:15;21.38;;;4.20;;
55728;SDS011;41633;39.720;2.910;2023-02-28T10:32:45;25.08;;;4.07;;
55728;SDS011;41633;39.720;2.910;2023-02-28T10:37:44;19.38;;;4.15;;
55728;SDS011;41633;39.720;2.910;2023-02-28T10:42:53;16.20;;;3.72;;
55728;SDS011;41633;39.720;2.910;2023-02-28T10:45:20;15.48;;;3.72;;
55728;SDS011;41633;39.720;2.910;2023-02-28T10:52:53;17.48;;;4.05;;
55728;SDS011;41633;39.720;2.910;2023-02-28T10:55:20;19.30;;;4.25;;
55728;SDS011;41633;39.720;2.910;2023-02-28T10:57:47;18.10;;;3.95;;
55728;SDS011;41633;39.720;2.910;2023-02-28T11:02:40;21.48;;;4.90;;
55728;SDS011;41633;39.720;2.910;2023-02-28T11:08:01;23.25;;;5.50;;
55728;SDS011;41633;39.720;2.910;2023-02-28T11:10:30;27.48;;;5.50;;
55728;SDS011;41633;39.720;2.910;2023-02-28T11:12:59;28.17;;;5.90;;
55728;SDS011;41633;39.720;2.910;2023-02-28T11:15:30;29.83;;;5.97;;
55728;SDS011;41633;39.720;2.910;2023-02-28T11:20:28;28.50;;;5.65;;
55728;SDS011;41633;39.720;2.910;2023-02-28T11:22:54;31.95;;;5.68;;
55728;SDS011;41633;39.720;2.910;2023-02-28T11:25:25;28.95;;;5.68;;
55728;SDS011;41633;39.720;2.910;2023-02-28T11:27:53;29.52;;;5.57;;
55728;SDS011;41633;39.720;2.910;2023-02-28T11:30:26;24.52;;;5.57;;
55728;SDS011;41633;39.720;2.910;2023-02-28T11:32:53;24.35;;;6.47;;
55728;SDS011;41633;39.720;2.910;2023-02-28T11:37:48;31.55;;;6.13;;
55728;SDS011;41633;39.720;2.910;2023-02-28T11:40:15;32.28;;;6.95;;
55728;SDS011;41633;39.720;2.910;2023-02-28T11:55:24;19.48;;;4.30;;
55728;SDS011;41633;39.720;2.910;2023-02-28T12:00:40;24.58;;;4.40;;
55728;SDS011;41633;39.720;2.910;2023-02-28T12:03:15;23.63;;;4.10;;
55728;SDS011;41633;39.720;2.910;2023-02-28T12:05:46;19.98;;;5.50;;
55728;SDS011;41633;39.720;2.910;2023-02-28T12:11:01;25.98;;;5.80;;
55728;SDS011;41633;39.720;2.910;2023-02-28T12:13:34;32.17;;;7.55;;
55728;SDS011;41633;39.720;2.910;2023-02-28T12:18:52;23.88;;;6.85;;
55728;SDS011;41633;39.720;2.910;2023-02-28T12:21:25;23.73;;;6.43;;
55728;SDS011;41633;39.720;2.910;2023-02-28T12:26:38;25.10;;;7.13;;
55728;SDS011;41633;39.720;2.910;2023-02-28T12:31:52;23.80;;;6.25;;
55728;SDS011;41633;39.720;2.910;2023-02-28T12:34:25;25.67;;;7.05;;
55728;SDS011;41633;39.720;2.910;2023-02-28T12:36:53;22.88;;;6.40;;
55728;SDS011;41633;39.720;2.910;2023-02-28T12:39:26;28.20;;;7.68;;
55728;SDS011;41633;39.720;2.910;2023-02-28T12:41:54;26.02;;;5.90;;
55728;SDS011;41633;39.720;2.910;2023-02-28T12:44:30;28.30;;;6.90;;
55728;SDS011;41633;39.720;2.910;2023-02-28T12:46:59;32.05;;;6.60;;
55728;SDS011;41633;39.720;2.910;2023-02-28T12:52:11;20.58;;;6.10;;
55728;SDS011;41633;39.720;2.910;2023-02-28T12:54:49;26.77;;;6.15;;
55728;SDS011;41633;39.720;2.910;2023-02-28T12:59:54;26.92;;;5.90;;
55728;SDS011;41633;39.720;2.910;2023-02-28T13:10:02;31.58;;;6.05;;
55728;SDS011;41633;39.720;2.910;2023-02-28T13:12:28;31.52;;;6.15;;
55728;SDS011;41633;39.720;2.910;2023-02-28T13:15:04;32.30;;;6.18;;
55728;SDS011;41633;39.720;2.910;2023-02-28T13:17:38;32.63;;;6.60;;
55728;SDS011;41633;39.720;2.910;2023-02-28T13:20:16;31.95;;;6.88;;
55728;SDS011;41633;39.720;2.910;2023-02-28T13:22:44;23.23;;;5.30;;
55728;SDS011;41633;39.720;2.910;2023-02-28T13:27:56;30.42;;;6.97;;
55728;SDS011;41633;39.720;2.910;2023-02-28T13:44:07;26.98;;;7.45;;
55728;SDS011;41633;39.720;2.910;2023-02-28T13:54:37;43.83;;;21.40;;
55728;SDS011;41633;39.720;2.910;2023-02-28T13:57:12;61.70;;;34.30;;
55728;SDS011;41633;39.720;2.910;2023-02-28T14:04:48;27.05;;;11.10;;
55728;SDS011;41633;39.720;2.910;2023-02-28T14:07:38;31.88;;;11.90;;
55728;SDS011;41633;39.720;2.910;2023-02-28T14:10:06;187.95;;;120.22;;
55728;SDS011;41633;39.720;2.910;2023-02-28T14:18:38;68.20;;;43.28;;
55728;SDS011;41633;39.720;2.910;2023-02-28T14:21:43;30.15;;;14.50;;
55728;SDS011;41633;39.720;2.910;2023-02-28T14:23:50;26.27;;;8.25;;
55728;SDS011;41633;39.720;2.910;2023-02-28T14:32:02;23.30;;;7.03;;
55728;SDS011;41633;39.720;2.910;2023-02-28T14:34:37;25.75;;;7.07;;
55728;SDS011;41633;39.720;2.910;2023-02-28T14:37:09;21.58;;;4.80;;
55728;SDS011;41633;39.720;2.910;2023-02-28T14:39:40;16.48;;;4.55;;
55728;SDS011;41633;39.720;2.910;2023-02-28T14:42:24;19.58;;;4.65;;
55728;SDS011;41633;39.720;2.910;2023-02-28T14:44:55;18.08;;;4.63;;
55728;SDS011;41633;39.720;2.910;2023-02-28T14:47:22;16.92;;;5.15;;
55728;SDS011;41633;39.720;2.910;2023-02-28T14:49:49;18.52;;;5.25;;
55728;SDS011;41633;39.720;2.910;2023-02-28T14:52:17;20.33;;;5.90;;
55728;SDS011;41633;39.720;2.910;2023-02-28T14:54:44;25.80;;;6.45;;
55728;SDS011;41633;39.720;2.910;2023-02-28T14:57:25;24.27;;;6.63;;
55728;SDS011;41633;39.720;2.910;2023-02-28T14:59:58;31.73;;;11.40;;
55728;SDS011;41633;39.720;2.910;2023-02-28T15:02:25;42.50;;;17.90;;
55728;SDS011;41633;39.720;2.910;2023-02-28T15:04:53;31.55;;;8.13;;
55728;SDS011;41633;39.720;2.910;2023-02-28T15:07:19;31.52;;;6.82;;
55728;SDS011;41633;39.720;2.910;2023-02-28T15:10:38;26.90;;;6.93;;
55728;SDS011;41633;39.720;2.910;2023-02-28T15:12:39;20.55;;;6.78;;
55728;SDS011;41633;39.720;2.910;2023-02-28T15:15:13;20.10;;;5.30;;
55728;SDS011;41633;39.720;2.910;2023-02-28T15:17:40;21.85;;;5.10;;
55728;SDS011;41633;39.720;2.910;2023-02-28T15:20:10;22.27;;;7.10;;
55728;SDS011;41633;39.720;2.910;2023-02-28T15:22:38;19.48;;;4.80;;
55728;SDS011;41633;39.720;2.910;2023-02-28T15:27:31;22.73;;;6.43;;
55728;SDS011;41633;39.720;2.910;2023-02-28T15:29:59;21.90;;;5.45;;
55728;SDS011;41633;39.720;2.910;2023-02-28T15:34:53;25.33;;;6.15;;
55728;SDS011;41633;39.720;2.910;2023-02-28T15:40:04;28.05;;;6.85;;
55728;SDS011;41633;39.720;2.910;2023-02-28T15:42:31;21.85;;;6.45;;
55728;SDS011;41633;39.720;2.910;2023-02-28T15:44:57;19.13;;;5.60;;
55728;SDS011;41633;39.720;2.910;2023-02-28T15:47:28;21.45;;;5.53;;
55728;SDS011;41633;39.720;2.910;2023-02-28T15:50:01;19.70;;;5.25;;
55728;SDS011;41633;39.720;2.910;2023-02-28T15:52:37;21.60;;;6.28;;
55728;SDS011;41633;39.720;2.910;2023-02-28T15:57:44;14.93;;;5.40;;
55728;SDS011;41633;39.720;2.910;2023-02-28T16:00:12;18.95;;;5.88;;
55728;SDS011;41633;39.720;2.910;2023-02-28T16:02:39;20.73;;;6.72;;
55728;SDS011;41633;39.720;2.910;2023-02-28T16:07:32;25.52;;;9.40;;
55728;SDS011;41633;39.720;2.910;2023-02-28T16:09:58;18.80;;;6.05;;
55728;SDS011;41633;39.720;2.910;2023-02-28T16:12:26;16.55;;;5.30;;
55728;SDS011;41633;39.720;2.910;2023-02-28T16:14:54;17.30;;;5.20;;
55728;SDS011;41633;39.720;2.910;2023-02-28T16:17:21;16.95;;;4.80;;
55728;SDS011;41633;39.720;2.910;2023-02-28T16:19:48;17.38;;;4.90;;
55728;SDS011;41633;39.720;2.910;2023-02-28T16:22:14;17.00;;;6.22;;
55728;SDS011;41633;39.720;2.910;2023-02-28T16:24:40;16.63;;;6.18;;
55728;SDS011;41633;39.720;2.910;2023-02-28T16:27:07;16.33;;;5.63;;
55728;SDS011;41633;39.720;2.910;2023-02-28T16:29:36;17.30;;;6.20;;
55728;SDS011;41633;39.720;2.910;2023-02-28T16:32:06;18.98;;;6.32;;
55728;SDS011;41633;39.720;2.910;2023-02-28T16:34:32;21.52;;;7.45;;
55728;SDS011;41633;39.720;2.910;2023-02-28T16:36:58;17.13;;;5.78;;
55728;SDS011;41633;39.720;2.910;2023-02-28T16:39:25;16.67;;;5.05;;
55728;SDS011;41633;39.720;2.910;2023-02-28T16:41:51;20.42;;;5.80;;
55728;SDS011;41633;39.720;2.910;2023-02-28T16:44:21;13.65;;;5.50;;
55728;SDS011;41633;39.720;2.910;2023-02-28T16:46:51;18.08;;;4.90;;
55728;SDS011;41633;39.720;2.910;2023-02-28T16:49:17;14.32;;;4.45;;
55728;SDS011;41633;39.720;2.910;2023-02-28T16:51:43;16.35;;;5.45;;
55728;SDS011;41633;39.720;2.910;2023-02-28T16:54:09;19.63;;;4.97;;
55728;SDS011;41633;39.720;2.910;2023-02-28T16:56:35;17.83;;;5.43;;
55728;SDS011;41633;39.720;2.910;2023-02-28T16:59:02;18.45;;;5.25;;
55728;SDS011;41633;39.720;2.910;2023-02-28T17:01:28;17.20;;;6.32;;
55728;SDS011;41633;39.720;2.910;2023-02-28T17:03:55;16.55;;;4.78;;
55728;SDS011;41633;39.720;2.910;2023-02-28T17:06:23;18.52;;;5.28;;
55728;SDS011;41633;39.720;2.910;2023-02-28T17:08:50;16.30;;;7.10;;
55728;SDS011;41633;39.720;2.910;2023-02-28T17:11:16;20.45;;;6.47;;
55728;SDS011;41633;39.720;2.910;2023-02-28T17:16:13;19.88;;;6.75;;
55728;SDS011;41633;39.720;2.910;2023-02-28T17:18:41;22.55;;;7.50;;
55728;SDS011;41633;39.720;2.910;2023-02-28T17:21:15;20.05;;;5.95;;
55728;SDS011;41633;39.720;2.910;2023-02-28T17:23:41;21.48;;;5.72;;
55728;SDS011;41633;39.720;2.910;2023-02-28T17:26:15;21.38;;;6.55;;
55728;SDS011;41633;39.720;2.910;2023-02-28T17:28:42;21.67;;;6.88;;
55728;SDS011;41633;39.720;2.910;2023-02-28T17:31:09;19.40;;;7.55;;
55728;SDS011;41633;39.720;2.910;2023-02-28T17:36:01;20.55;;;6.18;;
55728;SDS011;41633;39.720;2.910;2023-02-28T17:38:27;20.55;;;4.53;;
55728;SDS011;41633;39.720;2.910;2023-02-28T17:40:53;20.55;;;5.13;;
55728;SDS011;41633;39.720;2.910;2023-02-28T17:43:25;19.33;;;4.50;;
55728;SDS011;41633;39.720;2.910;2023-02-28T17:45:51;15.40;;;5.03;;
55728;SDS011;41633;39.720;2.910;2023-02-28T17:48:18;21.42;;;5.82;;
55728;SDS011;41633;39.720;2.910;2023-02-28T17:53:10;25.95;;;6.57;;
55728;SDS011;41633;39.720;2.910;2023-02-28T17:55:36;23.60;;;6.32;;
55728;SDS011;41633;39.720;2.910;2023-02-28T17:58:04;34.30;;;15.60;;
55728;SDS011;41633;39.720;2.910;2023-02-28T18:02:58;34.25;;;16.83;;
55728;SDS011;41633;39.720;2.910;2023-02-28T18:05:25;35.53;;;13.43;;